sensor_id;sensor_type;location;lat;lon;timestamp;pressure;altitude;pressure_sealevel;temperature;humidity
20710;BME280;10516;51.518;9.864;2023-03-30T00:00:15;98179.72;;;8.79;79.82
20710;BME280;10516;51.518;9.864;2023-03-30T00:02:45;98165.94;;;8.82;79.40
20710;BME280;10516;51.518;9.864;2023-03-30T00:05:10;98156.38;;;8.86;79.67
20710;BME280;10516;51.518;9.864;2023-03-30T00:07:37;98166.75;;;8.87;79.89
20710;BME280;10516;51.518;9.864;2023-03-30T00:10:09;98167.53;;;8.83;79.65
20710;BME280;10516;51.518;9.864;2023-03-30T00:12:35;98163.75;;;8.79;79.22
20710;BME280;10516;51.518;9.864;2023-03-30T00:15:01;98156.88;;;8.83;80.08
20710;BME280;10516;51.518;9.864;2023-03-30T00:17:26;98154.53;;;8.86;79.04
20710;BME280;10516;51.518;9.864;2023-03-30T00:19:52;98155.28;;;8.82;79.74
20710;BME280;10516;51.518;9.864;2023-03-30T00:22:17;98147.00;;;8.78;79.81
20710;BME280;10516;51.518;9.864;2023-03-30T00:24:42;98140.56;;;8.74;80.83
20710;BME280;10516;51.518;9.864;2023-03-30T00:27:08;98143.84;;;8.81;79.54
20710;BME280;10516;51.518;9.864;2023-03-30T00:29:33;98128.78;;;8.60;81.94
20710;BME280;10516;51.518;9.864;2023-03-30T00:31:58;98129.47;;;8.82;80.25
20710;BME280;10516;51.518;9.864;2023-03-30T00:34:23;98128.16;;;8.85;80.35
20710;BME280;10516;51.518;9.864;2023-03-30T00:36:49;98132.34;;;8.76;80.31
20710;BME280;10516;51.518;9.864;2023-03-30T00:39:17;98115.03;;;8.73;80.27
20710;BME280;10516;51.518;9.864;2023-03-30T00:41:43;98118.25;;;8.75;80.22
20710;BME280;10516;51.518;9.864;2023-03-30T00:45:01;98110.22;;;8.70;80.79
20710;BME280;10516;51.518;9.864;2023-03-30T00:46:54;98110.75;;;8.72;81.04
20710;BME280;10516;51.518;9.864;2023-03-30T00:49:19;98111.47;;;8.58;81.11
20710;BME280;10516;51.518;9.864;2023-03-30T00:51:45;98115.53;;;8.70;80.59
20710;BME280;10516;51.518;9.864;2023-03-30T00:54:15;98113.56;;;8.56;81.36
20710;BME280;10516;51.518;9.864;2023-03-30T00:56:42;98108.53;;;8.59;81.33
20710;BME280;10516;51.518;9.864;2023-03-30T00:59:07;98099.28;;;8.35;82.52
20710;BME280;10516;51.518;9.864;2023-03-30T01:01:33;98093.28;;;8.50;81.72
20710;BME280;10516;51.518;9.864;2023-03-30T01:04:02;98082.66;;;8.50;81.29
20710;BME280;10516;51.518;9.864;2023-03-30T01:06:29;98082.69;;;8.55;80.96
20710;BME280;10516;51.518;9.864;2023-03-30T01:08:55;98078.19;;;8.55;81.72
20710;BME280;10516;51.518;9.864;2023-03-30T01:11:22;98085.88;;;8.52;81.00
20710;BME280;10516;51.518;9.864;2023-03-30T01:13:48;98084.75;;;8.48;80.98
20710;BME280;10516;51.518;9.864;2023-03-30T01:21:41;98078.56;;;8.37;81.66
20710;BME280;10516;51.518;9.864;2023-03-30T01:24:20;98070.38;;;8.44;82.30
20710;BME280;10516;51.518;9.864;2023-03-30T01:45:10;98042.41;;;8.36;81.10
20710;BME280;10516;51.518;9.864;2023-03-30T01:47:39;98045.56;;;8.33;80.97
20710;BME280;10516;51.518;9.864;2023-03-30T01:52:36;98035.13;;;8.26;81.72
20710;BME280;10516;51.518;9.864;2023-03-30T01:57:38;98027.28;;;8.15;81.93
20710;BME280;10516;51.518;9.864;2023-03-30T02:00:06;98018.31;;;8.21;80.81
20710;BME280;10516;51.518;9.864;2023-03-30T02:02:39;98028.63;;;8.17;81.33
20710;BME280;10516;51.518;9.864;2023-03-30T02:05:06;98021.47;;;8.18;80.83
20710;BME280;10516;51.518;9.864;2023-03-30T02:07:32;98032.25;;;8.06;81.61
20710;BME280;10516;51.518;9.864;2023-03-30T02:10:01;98020.84;;;7.52;85.00
20710;BME280;10516;51.518;9.864;2023-03-30T02:12:28;98019.97;;;7.69;83.54
20710;BME280;10516;51.518;9.864;2023-03-30T02:14:55;98034.44;;;8.09;81.21
20710;BME280;10516;51.518;9.864;2023-03-30T02:17:22;98029.06;;;8.04;81.07
20710;BME280;10516;51.518;9.864;2023-03-30T02:19:48;98027.19;;;7.51;83.85
20710;BME280;10516;51.518;9.864;2023-03-30T02:22:14;98013.69;;;7.80;83.56
20710;BME280;10516;51.518;9.864;2023-03-30T02:24:40;98021.94;;;7.56;84.84
20710;BME280;10516;51.518;9.864;2023-03-30T02:27:07;98015.69;;;7.94;83.08
20710;BME280;10516;51.518;9.864;2023-03-30T02:29:32;98013.47;;;7.60;84.00
20710;BME280;10516;51.518;9.864;2023-03-30T02:32:00;98017.59;;;7.72;83.90
20710;BME280;10516;51.518;9.864;2023-03-30T02:34:39;98012.19;;;7.62;84.53
20710;BME280;10516;51.518;9.864;2023-03-30T02:46:07;97999.75;;;7.94;81.27
20710;BME280;10516;51.518;9.864;2023-03-30T02:48:06;98007.97;;;7.93;80.97
20710;BME280;10516;51.518;9.864;2023-03-30T02:50:45;97998.84;;;7.84;81.16
20710;BME280;10516;51.518;9.864;2023-03-30T02:53:22;97984.97;;;7.77;83.16
20710;BME280;10516;51.518;9.864;2023-03-30T03:00:51;97981.16;;;7.94;80.57
20710;BME280;10516;51.518;9.864;2023-03-30T03:03:25;97975.38;;;8.02;80.43
20710;BME280;10516;51.518;9.864;2023-03-30T03:05:52;97979.38;;;8.05;80.71
20710;BME280;10516;51.518;9.864;2023-03-30T03:08:19;97976.16;;;8.03;81.30
20710;BME280;10516;51.518;9.864;2023-03-30T03:10:47;97974.06;;;8.05;81.15
20710;BME280;10516;51.518;9.864;2023-03-30T03:13:12;97974.19;;;8.20;81.42
20710;BME280;10516;51.518;9.864;2023-03-30T03:15:39;97978.44;;;8.21;82.04
20710;BME280;10516;51.518;9.864;2023-03-30T03:18:05;97967.81;;;8.21;82.13
20710;BME280;10516;51.518;9.864;2023-03-30T03:20:30;97981.16;;;8.26;82.56
20710;BME280;10516;51.518;9.864;2023-03-30T03:22:55;97965.25;;;8.31;82.09
20710;BME280;10516;51.518;9.864;2023-03-30T03:25:21;97987.06;;;8.33;83.03
20710;BME280;10516;51.518;9.864;2023-03-30T03:27:46;97982.28;;;8.35;82.58
20710;BME280;10516;51.518;9.864;2023-03-30T03:30:12;97987.69;;;8.45;81.90
20710;BME280;10516;51.518;9.864;2023-03-30T03:32:37;97988.03;;;8.59;82.16
20710;BME280;10516;51.518;9.864;2023-03-30T03:35:02;97987.25;;;8.58;82.37
20710;BME280;10516;51.518;9.864;2023-03-30T03:37:27;97973.97;;;8.58;81.44
20710;BME280;10516;51.518;9.864;2023-03-30T03:39:53;97982.00;;;8.68;81.67
20710;BME280;10516;51.518;9.864;2023-03-30T03:42:18;97977.47;;;8.74;81.38
20710;BME280;10516;51.518;9.864;2023-03-30T03:44:43;97971.16;;;8.80;80.84
20710;BME280;10516;51.518;9.864;2023-03-30T03:47:08;97961.00;;;8.77;81.46
20710;BME280;10516;51.518;9.864;2023-03-30T03:49:34;97945.34;;;8.85;81.42
20710;BME280;10516;51.518;9.864;2023-03-30T03:51:59;97942.97;;;8.89;80.82
20710;BME280;10516;51.518;9.864;2023-03-30T03:54:24;97945.38;;;8.90;81.14
20710;BME280;10516;51.518;9.864;2023-03-30T03:56:49;97939.03;;;8.96;80.65
20710;BME280;10516;51.518;9.864;2023-03-30T03:59:15;97933.97;;;8.95;80.49
20710;BME280;10516;51.518;9.864;2023-03-30T04:01:41;97921.97;;;8.92;80.05
20710;BME280;10516;51.518;9.864;2023-03-30T04:04:06;97914.25;;;8.91;80.26
20710;BME280;10516;51.518;9.864;2023-03-30T04:06:31;97908.41;;;8.94;80.02
20710;BME280;10516;51.518;9.864;2023-03-30T04:08:56;97907.91;;;8.97;80.14
20710;BME280;10516;51.518;9.864;2023-03-30T04:11:22;97921.47;;;9.00;80.47
20710;BME280;10516;51.518;9.864;2023-03-30T04:13:47;97923.09;;;9.01;80.01
20710;BME280;10516;51.518;9.864;2023-03-30T04:16:13;97933.19;;;8.99;79.89
20710;BME280;10516;51.518;9.864;2023-03-30T04:18:38;97929.47;;;9.05;79.92
20710;BME280;10516;51.518;9.864;2023-03-30T04:21:05;97904.19;;;9.03;80.02
20710;BME280;10516;51.518;9.864;2023-03-30T04:23:31;97906.09;;;9.13;79.46
20710;BME280;10516;51.518;9.864;2023-03-30T04:25:58;97897.31;;;9.17;78.91
20710;BME280;10516;51.518;9.864;2023-03-30T04:28:25;97889.88;;;9.19;79.17
20710;BME280;10516;51.518;9.864;2023-03-30T04:30:55;97886.94;;;9.21;79.85
20710;BME280;10516;51.518;9.864;2023-03-30T04:33:23;97900.28;;;9.26;79.63
20710;BME280;10516;51.518;9.864;2023-03-30T04:35:48;97890.97;;;9.28;79.72
20710;BME280;10516;51.518;9.864;2023-03-30T04:38:13;97872.84;;;9.35;79.04
20710;BME280;10516;51.518;9.864;2023-03-30T04:40:50;97885.38;;;9.35;78.86
20710;BME280;10516;51.518;9.864;2023-03-30T04:43:18;97894.44;;;9.39;78.78
20710;BME280;10516;51.518;9.864;2023-03-30T04:45:51;97890.44;;;9.41;79.40
20710;BME280;10516;51.518;9.864;2023-03-30T04:48:17;97905.88;;;9.44;79.78
20710;BME280;10516;51.518;9.864;2023-03-30T04:50:44;97898.19;;;9.48;79.27
20710;BME280;10516;51.518;9.864;2023-03-30T04:53:09;97893.91;;;9.47;79.07
20710;BME280;10516;51.518;9.864;2023-03-30T04:55:34;97881.94;;;9.49;79.47
20710;BME280;10516;51.518;9.864;2023-03-30T04:58:00;97869.66;;;9.48;79.48
20710;BME280;10516;51.518;9.864;2023-03-30T05:00:25;97848.38;;;9.53;79.60
20710;BME280;10516;51.518;9.864;2023-03-30T05:02:51;97861.16;;;9.61;79.66
20710;BME280;10516;51.518;9.864;2023-03-30T05:05:16;97865.69;;;9.61;79.92
20710;BME280;10516;51.518;9.864;2023-03-30T05:07:42;97864.06;;;9.55;79.88
20710;BME280;10516;51.518;9.864;2023-03-30T05:10:07;97873.66;;;9.51;80.24
20710;BME280;10516;51.518;9.864;2023-03-30T05:12:32;97855.81;;;9.51;81.17
20710;BME280;10516;51.518;9.864;2023-03-30T05:14:57;97859.28;;;9.52;80.98
20710;BME280;10516;51.518;9.864;2023-03-30T05:17:23;97848.63;;;9.52;81.25
20710;BME280;10516;51.518;9.864;2023-03-30T05:19:48;97852.38;;;9.61;80.65
20710;BME280;10516;51.518;9.864;2023-03-30T05:22:13;97852.09;;;9.62;80.72
20710;BME280;10516;51.518;9.864;2023-03-30T05:24:39;97851.81;;;9.59;80.71
20710;BME280;10516;51.518;9.864;2023-03-30T05:27:04;97852.38;;;9.56;81.32
20710;BME280;10516;51.518;9.864;2023-03-30T05:29:31;97843.28;;;9.57;80.99
20710;BME280;10516;51.518;9.864;2023-03-30T05:31:56;97838.50;;;9.54;81.73
20710;BME280;10516;51.518;9.864;2023-03-30T05:34:21;97848.63;;;9.57;81.57
20710;BME280;10516;51.518;9.864;2023-03-30T05:36:47;97840.91;;;9.50;81.54
20710;BME280;10516;51.518;9.864;2023-03-30T05:39:12;97824.66;;;9.52;81.66
20710;BME280;10516;51.518;9.864;2023-03-30T05:41:38;97827.06;;;9.53;82.00
20710;BME280;10516;51.518;9.864;2023-03-30T05:44:03;97836.66;;;9.49;81.44
20710;BME280;10516;51.518;9.864;2023-03-30T05:46:31;97835.31;;;9.47;81.52
20710;BME280;10516;51.518;9.864;2023-03-30T05:48:56;97837.19;;;9.56;81.97
20710;BME280;10516;51.518;9.864;2023-03-30T05:51:21;97835.06;;;9.58;82.27
20710;BME280;10516;51.518;9.864;2023-03-30T05:53:46;97829.97;;;9.62;81.90
20710;BME280;10516;51.518;9.864;2023-03-30T05:56:12;97838.53;;;9.74;81.27
20710;BME280;10516;51.518;9.864;2023-03-30T05:58:37;97834.78;;;9.80;81.32
20710;BME280;10516;51.518;9.864;2023-03-30T06:01:02;97827.84;;;9.79;81.68
20710;BME280;10516;51.518;9.864;2023-03-30T06:03:29;97834.50;;;9.81;81.05
20710;BME280;10516;51.518;9.864;2023-03-30T06:05:55;97840.09;;;9.90;81.37
20710;BME280;10516;51.518;9.864;2023-03-30T06:08:20;97841.69;;;9.86;81.79
20710;BME280;10516;51.518;9.864;2023-03-30T06:10:52;97845.16;;;9.97;81.93
20710;BME280;10516;51.518;9.864;2023-03-30T06:13:18;97839.53;;;9.98;81.64
20710;BME280;10516;51.518;9.864;2023-03-30T06:15:46;97832.63;;;10.02;83.00
20710;BME280;10516;51.518;9.864;2023-03-30T06:18:15;97839.81;;;10.07;82.07
20710;BME280;10516;51.518;9.864;2023-03-30T06:20:40;97838.22;;;10.06;82.65
20710;BME280;10516;51.518;9.864;2023-03-30T06:23:05;97840.63;;;10.12;82.01
20710;BME280;10516;51.518;9.864;2023-03-30T06:25:31;97830.97;;;10.36;82.60
20710;BME280;10516;51.518;9.864;2023-03-30T06:27:56;97824.28;;;10.44;82.09
20710;BME280;10516;51.518;9.864;2023-03-30T06:30:22;97841.34;;;10.38;81.70
20710;BME280;10516;51.518;9.864;2023-03-30T06:32:47;97840.03;;;10.35;81.97
20710;BME280;10516;51.518;9.864;2023-03-30T06:35:12;97846.69;;;10.38;82.31
20710;BME280;10516;51.518;9.864;2023-03-30T06:37:39;97862.16;;;10.36;81.14
20710;BME280;10516;51.518;9.864;2023-03-30T06:40:05;97861.34;;;10.35;82.11
20710;BME280;10516;51.518;9.864;2023-03-30T06:42:32;97873.13;;;10.29;82.00
20710;BME280;10516;51.518;9.864;2023-03-30T06:44:57;97878.97;;;10.31;81.84
20710;BME280;10516;51.518;9.864;2023-03-30T06:47:23;97875.25;;;10.32;81.81
20710;BME280;10516;51.518;9.864;2023-03-30T06:49:48;97878.44;;;10.34;81.63
20710;BME280;10516;51.518;9.864;2023-03-30T06:52:14;97860.56;;;10.40;82.06
20710;BME280;10516;51.518;9.864;2023-03-30T06:54:39;97872.31;;;10.39;81.35
20710;BME280;10516;51.518;9.864;2023-03-30T06:57:04;97870.16;;;10.41;81.30
20710;BME280;10516;51.518;9.864;2023-03-30T06:59:29;97865.34;;;10.38;81.56
20710;BME280;10516;51.518;9.864;2023-03-30T07:01:56;97854.19;;;10.31;81.46
20710;BME280;10516;51.518;9.864;2023-03-30T07:04:22;97849.63;;;10.41;82.40
20710;BME280;10516;51.518;9.864;2023-03-30T07:06:47;97845.88;;;10.47;82.30
20710;BME280;10516;51.518;9.864;2023-03-30T07:09:13;97845.88;;;10.42;82.08
20710;BME280;10516;51.518;9.864;2023-03-30T07:11:38;97840.53;;;10.42;82.75
20710;BME280;10516;51.518;9.864;2023-03-30T07:14:03;97854.94;;;10.46;82.53
20710;BME280;10516;51.518;9.864;2023-03-30T07:16:29;97856.00;;;10.45;82.27
20710;BME280;10516;51.518;9.864;2023-03-30T07:18:55;97860.78;;;10.48;82.47
20710;BME280;10516;51.518;9.864;2023-03-30T07:21:20;97866.63;;;10.55;82.24
20710;BME280;10516;51.518;9.864;2023-03-30T07:23:45;97855.97;;;10.55;82.29
20710;BME280;10516;51.518;9.864;2023-03-30T07:26:11;97852.50;;;10.55;82.76
20710;BME280;10516;51.518;9.864;2023-03-30T07:28:36;97859.97;;;10.58;82.40
20710;BME280;10516;51.518;9.864;2023-03-30T07:31:06;97859.97;;;10.58;82.08
20710;BME280;10516;51.518;9.864;2023-03-30T07:33:31;97847.16;;;10.60;82.42
20710;BME280;10516;51.518;9.864;2023-03-30T07:35:56;97855.69;;;10.62;82.80
20710;BME280;10516;51.518;9.864;2023-03-30T07:38:22;97855.72;;;10.57;82.27
20710;BME280;10516;51.518;9.864;2023-03-30T07:40:47;97852.78;;;10.59;82.48
20710;BME280;10516;51.518;9.864;2023-03-30T07:43:12;97866.63;;;10.61;83.05
20710;BME280;10516;51.518;9.864;2023-03-30T07:45:38;97866.09;;;10.59;81.69
20710;BME280;10516;51.518;9.864;2023-03-30T07:48:03;97871.69;;;10.62;82.26
20710;BME280;10516;51.518;9.864;2023-03-30T07:50:28;97888.78;;;10.56;83.01
20710;BME280;10516;51.518;9.864;2023-03-30T07:52:54;97899.47;;;10.51;82.59
20710;BME280;10516;51.518;9.864;2023-03-30T07:55:20;97884.00;;;10.53;84.12
20710;BME280;10516;51.518;9.864;2023-03-30T07:57:45;97889.59;;;10.51;85.37
20710;BME280;10516;51.518;9.864;2023-03-30T08:00:10;97885.34;;;10.50;85.08
20710;BME280;10516;51.518;9.864;2023-03-30T08:02:38;97904.81;;;10.56;84.98
20710;BME280;10516;51.518;9.864;2023-03-30T08:05:03;97878.41;;;10.54;85.02
20710;BME280;10516;51.518;9.864;2023-03-30T08:07:28;97881.56;;;10.62;84.63
20710;BME280;10516;51.518;9.864;2023-03-30T08:09:54;97880.72;;;10.71;84.72
20710;BME280;10516;51.518;9.864;2023-03-30T08:12:19;97887.41;;;10.74;84.47
20710;BME280;10516;51.518;9.864;2023-03-30T08:14:47;97882.06;;;10.79;84.98
20710;BME280;10516;51.518;9.864;2023-03-30T08:17:13;97875.38;;;10.76;84.87
20710;BME280;10516;51.518;9.864;2023-03-30T08:19:38;97884.97;;;10.77;84.65
20710;BME280;10516;51.518;9.864;2023-03-30T08:22:03;97880.69;;;10.81;84.98
20710;BME280;10516;51.518;9.864;2023-03-30T08:24:28;97870.25;;;10.90;84.72
20710;BME280;10516;51.518;9.864;2023-03-30T08:26:54;97871.84;;;10.86;84.14
20710;BME280;10516;51.518;9.864;2023-03-30T08:29:19;97871.56;;;10.92;83.53
20710;BME280;10516;51.518;9.864;2023-03-30T08:31:45;97865.16;;;10.93;83.39
20710;BME280;10516;51.518;9.864;2023-03-30T08:34:10;97854.19;;;10.95;83.46
20710;BME280;10516;51.518;9.864;2023-03-30T08:36:36;97850.69;;;11.04;83.04
20710;BME280;10516;51.518;9.864;2023-03-30T08:39:01;97865.38;;;11.07;82.95
20710;BME280;10516;51.518;9.864;2023-03-30T08:44:35;97843.44;;;11.10;82.86
20710;BME280;10516;51.518;9.864;2023-03-30T08:46:41;97837.78;;;11.16;82.87
20710;BME280;10516;51.518;9.864;2023-03-30T08:49:10;97839.38;;;11.22;82.80
20710;BME280;10516;51.518;9.864;2023-03-30T08:51:37;97852.47;;;11.19;82.83
20710;BME280;10516;51.518;9.864;2023-03-30T08:54:04;97853.78;;;11.21;82.78
20710;BME280;10516;51.518;9.864;2023-03-30T08:56:30;97853.78;;;11.26;82.34
20710;BME280;10516;51.518;9.864;2023-03-30T09:01:35;97852.13;;;11.30;82.73
20710;BME280;10516;51.518;9.864;2023-03-30T09:04:07;97836.28;;;11.44;82.19
20710;BME280;10516;51.518;9.864;2023-03-30T09:06:58;97845.91;;;11.40;82.10
20710;BME280;10516;51.518;9.864;2023-03-30T09:09:29;97839.72;;;11.50;82.03
20710;BME280;10516;51.518;9.864;2023-03-30T09:12:01;97835.06;;;11.60;81.94
20710;BME280;10516;51.518;9.864;2023-03-30T09:14:33;97854.06;;;11.59;81.96
20710;BME280;10516;51.518;9.864;2023-03-30T09:17:05;97834.97;;;11.75;82.01
20710;BME280;10516;51.518;9.864;2023-03-30T09:19:34;97839.81;;;11.73;82.80
20710;BME280;10516;51.518;9.864;2023-03-30T09:22:02;97844.38;;;11.73;82.01
20710;BME280;10516;51.518;9.864;2023-03-30T09:24:30;97850.44;;;11.83;81.58
20710;BME280;10516;51.518;9.864;2023-03-30T09:29:31;97828.47;;;11.86;81.20
20710;BME280;10516;51.518;9.864;2023-03-30T09:32:12;97819.84;;;11.94;81.86
20710;BME280;10516;51.518;9.864;2023-03-30T09:37:08;97821.25;;;12.16;81.58
20710;BME280;10516;51.518;9.864;2023-03-30T09:39:34;97824.31;;;12.28;80.57
20710;BME280;10516;51.518;9.864;2023-03-30T09:42:10;97821.25;;;12.39;80.35
20710;BME280;10516;51.518;9.864;2023-03-30T09:44:46;97825.09;;;12.52;80.26
20710;BME280;10516;51.518;9.864;2023-03-30T09:47:28;97837.53;;;12.66;79.53
20710;BME280;10516;51.518;9.864;2023-03-30T09:49:57;97830.38;;;12.62;78.85
20710;BME280;10516;51.518;9.864;2023-03-30T09:52:24;97822.44;;;12.52;79.12
20710;BME280;10516;51.518;9.864;2023-03-30T09:54:50;97821.53;;;12.61;78.38
20710;BME280;10516;51.518;9.864;2023-03-30T09:59:50;97818.97;;;12.75;78.28
20710;BME280;10516;51.518;9.864;2023-03-30T10:02:19;97821.69;;;12.70;78.29
20710;BME280;10516;51.518;9.864;2023-03-30T10:09:45;97807.75;;;12.92;77.37
20710;BME280;10516;51.518;9.864;2023-03-30T10:12:10;97814.13;;;12.96;77.20
20710;BME280;10516;51.518;9.864;2023-03-30T10:14:36;97797.84;;;12.92;77.78
20710;BME280;10516;51.518;9.864;2023-03-30T10:17:02;97805.31;;;12.95;76.83
20710;BME280;10516;51.518;9.864;2023-03-30T10:19:28;97798.78;;;13.01;76.84
20710;BME280;10516;51.518;9.864;2023-03-30T10:21:55;97797.84;;;12.92;77.00
20710;BME280;10516;51.518;9.864;2023-03-30T10:26:48;97790.16;;;13.04;76.92
20710;BME280;10516;51.518;9.864;2023-03-30T10:29:18;97793.38;;;13.06;76.27
20710;BME280;10516;51.518;9.864;2023-03-30T10:31:46;97793.69;;;13.00;77.15
20710;BME280;10516;51.518;9.864;2023-03-30T10:34:19;97789.81;;;13.11;77.05
20710;BME280;10516;51.518;9.864;2023-03-30T10:36:47;97786.88;;;13.12;76.90
20710;BME280;10516;51.518;9.864;2023-03-30T10:39:28;97788.94;;;13.15;77.11
20710;BME280;10516;51.518;9.864;2023-03-30T10:41:54;97785.50;;;13.15;77.76
20710;BME280;10516;51.518;9.864;2023-03-30T10:44:24;97770.56;;;13.09;78.06
20710;BME280;10516;51.518;9.864;2023-03-30T10:46:51;97767.63;;;13.10;78.38
20710;BME280;10516;51.518;9.864;2023-03-30T10:49:23;97754.25;;;13.24;77.86
20710;BME280;10516;51.518;9.864;2023-03-30T10:52:09;97747.44;;;13.31;77.15
20710;BME280;10516;51.518;9.864;2023-03-30T10:54:40;97737.41;;;13.56;76.43
20710;BME280;10516;51.518;9.864;2023-03-30T10:57:10;97732.22;;;13.59;76.27
20710;BME280;10516;51.518;9.864;2023-03-30T11:09:57;97768.84;;;13.82;74.38
20710;BME280;10516;51.518;9.864;2023-03-30T11:12:28;97829.13;;;13.85;74.35
20710;BME280;10516;51.518;9.864;2023-03-30T11:14:59;97897.81;;;13.30;75.95
20710;BME280;10516;51.518;9.864;2023-03-30T11:17:49;97893.34;;;12.78;79.64
20710;BME280;10516;51.518;9.864;2023-03-30T11:20:21;97873.59;;;12.22;81.20
20710;BME280;10516;51.518;9.864;2023-03-30T11:22:57;97867.38;;;12.02;82.51
20710;BME280;10516;51.518;9.864;2023-03-30T11:25:31;97857.94;;;11.81;83.23
20710;BME280;10516;51.518;9.864;2023-03-30T11:27:58;97873.28;;;11.61;83.46
20710;BME280;10516;51.518;9.864;2023-03-30T11:30:28;97869.06;;;11.55;84.07
20710;BME280;10516;51.518;9.864;2023-03-30T11:32:56;97866.13;;;11.51;83.86
20710;BME280;10516;51.518;9.864;2023-03-30T11:35:33;97866.75;;;11.38;84.51
20710;BME280;10516;51.518;9.864;2023-03-30T11:43:16;97823.19;;;10.99;85.76
20710;BME280;10516;51.518;9.864;2023-03-30T11:48:18;97847.88;;;10.81;86.39
20710;BME280;10516;51.518;9.864;2023-03-30T12:00:42;97864.47;;;10.68;86.46
20710;BME280;10516;51.518;9.864;2023-03-30T12:05:46;97859.88;;;10.83;86.27
20710;BME280;10516;51.518;9.864;2023-03-30T12:08:42;97857.22;;;10.83;87.21
20710;BME280;10516;51.518;9.864;2023-03-30T12:11:13;97865.91;;;10.99;86.30
20710;BME280;10516;51.518;9.864;2023-03-30T12:13:39;97874.66;;;11.14;86.41
20710;BME280;10516;51.518;9.864;2023-03-30T12:16:07;97871.16;;;11.24;86.62
20710;BME280;10516;51.518;9.864;2023-03-30T12:18:41;97874.34;;;11.21;87.05
20710;BME280;10516;51.518;9.864;2023-03-30T12:21:17;97879.13;;;11.29;86.40
20710;BME280;10516;51.518;9.864;2023-03-30T12:26:32;97871.13;;;11.29;86.45
20710;BME280;10516;51.518;9.864;2023-03-30T12:29:17;97871.13;;;11.29;86.37
20710;BME280;10516;51.518;9.864;2023-03-30T12:34:20;97856.97;;;11.62;86.49
20710;BME280;10516;51.518;9.864;2023-03-30T12:36:46;97858.06;;;11.95;85.06
20710;BME280;10516;51.518;9.864;2023-03-30T12:39:29;97847.66;;;11.93;84.39
20710;BME280;10516;51.518;9.864;2023-03-30T12:42:04;97828.47;;;11.86;84.19
20710;BME280;10516;51.518;9.864;2023-03-30T12:44:37;97813.44;;;11.90;83.28
20710;BME280;10516;51.518;9.864;2023-03-30T12:47:13;97810.41;;;12.02;83.42
20710;BME280;10516;51.518;9.864;2023-03-30T12:52:11;97836.25;;;12.40;81.99
20710;BME280;10516;51.518;9.864;2023-03-30T12:55:12;97851.66;;;12.72;81.35
20710;BME280;10516;51.518;9.864;2023-03-30T12:57:33;97857.22;;;12.99;80.15
20710;BME280;10516;51.518;9.864;2023-03-30T13:00:02;97861.22;;;13.20;78.92
20710;BME280;10516;51.518;9.864;2023-03-30T13:02:35;97858.03;;;13.37;76.89
20710;BME280;10516;51.518;9.864;2023-03-30T13:05:04;97854.09;;;13.34;75.25
20710;BME280;10516;51.518;9.864;2023-03-30T13:07:40;97853.91;;;13.44;74.52
20710;BME280;10516;51.518;9.864;2023-03-30T13:12:52;97857.91;;;13.47;73.33
20710;BME280;10516;51.518;9.864;2023-03-30T13:20:20;97851.34;;;13.72;71.52
20710;BME280;10516;51.518;9.864;2023-03-30T13:22:51;97847.78;;;13.76;70.29
20710;BME280;10516;51.518;9.864;2023-03-30T13:25:25;97853.53;;;14.02;69.17
20710;BME280;10516;51.518;9.864;2023-03-30T13:27:50;97848.56;;;14.09;69.40
20710;BME280;10516;51.518;9.864;2023-03-30T13:30:16;97843.69;;;14.11;69.21
20710;BME280;10516;51.518;9.864;2023-03-30T13:32:48;97857.91;;;14.30;68.45
20710;BME280;10516;51.518;9.864;2023-03-30T13:35:25;97848.84;;;14.40;67.73
20710;BME280;10516;51.518;9.864;2023-03-30T13:38:06;97843.44;;;14.26;67.96
20710;BME280;10516;51.518;9.864;2023-03-30T13:50:31;97856.75;;;13.85;67.89
20710;BME280;10516;51.518;9.864;2023-03-30T13:52:59;97874.31;;;13.78;67.33
20710;BME280;10516;51.518;9.864;2023-03-30T13:57:55;97870.13;;;13.53;67.19
20710;BME280;10516;51.518;9.864;2023-03-30T14:02:53;97870.78;;;13.64;67.43
20710;BME280;10516;51.518;9.864;2023-03-30T14:05:19;97868.97;;;13.78;66.90
20710;BME280;10516;51.518;9.864;2023-03-30T14:07:45;97864.22;;;13.88;66.23
20710;BME280;10516;51.518;9.864;2023-03-30T14:10:13;97869.13;;;14.00;65.77
20710;BME280;10516;51.518;9.864;2023-03-30T14:12:38;97858.84;;;14.20;65.62
20710;BME280;10516;51.518;9.864;2023-03-30T14:15:14;97863.88;;;14.08;66.02
20710;BME280;10516;51.518;9.864;2023-03-30T14:17:39;97859.22;;;14.14;66.37
20710;BME280;10516;51.518;9.864;2023-03-30T14:23:03;97851.16;;;14.73;64.84
20710;BME280;10516;51.518;9.864;2023-03-30T14:28:11;97858.47;;;15.09;64.33
20710;BME280;10516;51.518;9.864;2023-03-30T14:30:37;97860.50;;;15.39;64.09
20710;BME280;10516;51.518;9.864;2023-03-30T14:33:09;97868.97;;;14.83;64.75
20710;BME280;10516;51.518;9.864;2023-03-30T14:35:37;97877.00;;;14.56;65.34
20710;BME280;10516;51.518;9.864;2023-03-30T14:38:03;97883.06;;;14.34;65.42
20710;BME280;10516;51.518;9.864;2023-03-30T14:40:29;97871.44;;;14.06;65.82
20710;BME280;10516;51.518;9.864;2023-03-30T14:42:55;97880.56;;;14.05;65.71
20710;BME280;10516;51.518;9.864;2023-03-30T14:45:20;97868.38;;;14.13;65.54
20710;BME280;10516;51.518;9.864;2023-03-30T14:47:46;97869.38;;;14.17;64.77
20710;BME280;10516;51.518;9.864;2023-03-30T14:50:13;97881.25;;;14.11;65.46
20710;BME280;10516;51.518;9.864;2023-03-30T14:52:40;97867.22;;;14.00;65.53
20710;BME280;10516;51.518;9.864;2023-03-30T14:55:06;97875.41;;;13.77;66.36
20710;BME280;10516;51.518;9.864;2023-03-30T14:57:33;97865.28;;;13.74;65.89
20710;BME280;10516;51.518;9.864;2023-03-30T15:00:02;97870.41;;;13.89;65.40
20710;BME280;10516;51.518;9.864;2023-03-30T15:02:55;97861.75;;;13.92;65.91
20710;BME280;10516;51.518;9.864;2023-03-30T15:05:22;97866.41;;;13.86;66.32
20710;BME280;10516;51.518;9.864;2023-03-30T15:07:49;97876.44;;;13.62;66.73
20710;BME280;10516;51.518;9.864;2023-03-30T15:10:42;97877.53;;;13.61;66.31
20710;BME280;10516;51.518;9.864;2023-03-30T15:13:00;97878.13;;;13.58;66.47
20710;BME280;10516;51.518;9.864;2023-03-30T15:15:28;97890.88;;;13.47;66.09
20710;BME280;10516;51.518;9.864;2023-03-30T15:17:54;97911.44;;;13.33;67.35